West Union, IL (62477)

5:57 AM CST on December 25, 2014 (GMT -0600)
Marshall Golf Course | Change Station
CLOSE
Current Station
Personal Weather Station
Location: Marshall, IL
Elevation: 601 ft
Nearby Weather Stations

Elev 601 ft 39.41 °N, 87.68 °W | Updated 8 seconds ago

Overcast
Overcast
36.0 °F
Feels Like 36 °F
N
1.5
Wind Variable Wind from SW
Gusts 3.5 mph

Today
High -- | Low -- °F
--% Chance of Precip.
Yesterday
High -- | Low -- °F
Precip. -- in
7:08 AM 4:33 PM
Waxing Crescent, 16% visible
Pressure 30.00 in
Visibility 10.0 miles
Clouds Overcast 2900 ft
Windchill 36 °F
Dew Point 30 °F
Humidity 79%
Rainfall 0.00 in
Snow Depth Not available.
UV 0 out of 12
Pollen .10 out of 12
Air Quality Not available.
Flu Activity Not available.
METAR KRSV 251135Z AUTO 25004KT 10SM OVC029 03/01 A3000 RMK AO2 T00250005

More Conditions Fewer Conditions

Pressure 30.00 in
Visibility 10.0 miles
Clouds Overcast 2900 ft
Windchill 36 °F
Dew Point 30 °F
Humidity 79%
Rainfall 0.00 in
Snow Depth Not available.
UV 0 out of 12
Pollen .10 out of 12
Air Quality Not available.
Flu Activity Not available.
METAR KRSV 251135Z AUTO 25004KT 10SM OVC029 03/01 A3000 RMK AO2 T00250005

More Conditions Fewer Conditions

10-Day Weather Forecast

Almanac

Astronomy

Dec. 25, 2014 Rise Set
Actual Time
Civil Twilight
Nautical Twilight
Astronomical Twilight
Moon
Length of Visible Light
Length of Day
Tomorrow will be .
, % of the Moon is Illuminated

Today's Extremes

State Highs State Lows

Community

WunderPhotos

Upload Photos

1,780,264 photos uploaded!

WunderBlogs® & News

Nearby

Air Quality

  Air Quality AQ Index Pollutant
Not available.

Snow Depth

Station Depth Elevation

Earthquake Activity

City Distance Mag. Time & Date
Minimum magnitude displayed is 2.5.

Coastal Water Temperatures

Place Temperature

Nearby Weather Stations